RYR39BP EBCI-LERS
Flight info
| Callsign | RYR39BP |
|---|---|
| Flight time | 1h 51m |
| Altitude | 31000 |
| Route | CIV N872 LESDO DCT KOVIN DCT DUCRA UM728 RESMI UN857 DISAK/N0429F330 DCT DIRMO DCT VALKU DCT ATSUP DCT MINSO DCT DEGOL DCT PPG DCT ALBER P84 GIR |
| Aircraft | B738/M-SDE2E3FGHIRWXY/LB1 |
Departure
| Time | 2026-05-01 10:09 |
|---|---|
| Airport | Brussels South Charleroi Airport (EBCI) |
Arrival
| Time | 2026-05-01 12:01 |
|---|---|
| Airport | Reus Airport (LERS) |
| Time | Latitude | Longitude | Altitude | Speed | Heading |
|---|---|---|---|---|---|
| 2026-05-01 09:53 | 50.46871 | 4.47097 | 612 ft | 0 kts | 335° |
| 2026-05-01 10:02 | 50.46869 | 4.47098 | 612 ft | 2 kts | 335° |
| 2026-05-01 10:02 | 50.46846 | 4.47115 | 628 ft | 3 kts | 335° |
| 2026-05-01 10:03 | 50.46827 | 4.47126 | 623 ft | 4 kts | 13° |
| 2026-05-01 10:03 | 50.46812 | 4.47105 | 619 ft | 4 kts | 65° |
| 2026-05-01 10:03 | 50.46804 | 4.47078 | 623 ft | 0 kts | 65° |
| 2026-05-01 10:06 | 50.46811 | 4.47101 | 618 ft | 5 kts | 65° |
| 2026-05-01 10:06 | 50.46830 | 4.47169 | 625 ft | 8 kts | 65° |
| 2026-05-01 10:06 | 50.46854 | 4.47248 | 614 ft | 8 kts | 65° |
| 2026-05-01 10:06 | 50.46842 | 4.47322 | 620 ft | 8 kts | 142° |
| 2026-05-01 10:07 | 50.46795 | 4.47357 | 616 ft | 7 kts | 156° |
| 2026-05-01 10:07 | 50.46748 | 4.47389 | 619 ft | 7 kts | 155° |
| 2026-05-01 10:07 | 50.46704 | 4.47421 | 620 ft | 7 kts | 155° |
| 2026-05-01 10:07 | 50.46660 | 4.47453 | 624 ft | 7 kts | 155° |
| 2026-05-01 10:08 | 50.46573 | 4.47309 | 621 ft | 38 kts | 245° |
| 2026-05-01 10:08 | 50.46365 | 4.46592 | 624 ft | 106 kts | 245° |
| 2026-05-01 10:08 | 50.45976 | 4.45248 | 623 ft | 162 kts | 244° |
| 2026-05-01 10:09 | 50.45482 | 4.43564 | 1119 ft | 171 kts | 239° |
| 2026-05-01 10:09 | 50.44979 | 4.41879 | 1983 ft | 165 kts | 242° |
| 2026-05-01 10:09 | 50.44513 | 4.40250 | 2735 ft | 164 kts | 241° |
| 2026-05-01 10:09 | 50.44033 | 4.38594 | 3426 ft | 170 kts | 242° |
| 2026-05-01 10:10 | 50.43539 | 4.36872 | 4015 ft | 181 kts | 242° |
| 2026-05-01 10:10 | 50.42986 | 4.34954 | 4446 ft | 203 kts | 242° |
| 2026-05-01 10:10 | 50.41714 | 4.30528 | 4965 ft | 247 kts | 242° |
| 2026-05-01 10:11 | 50.41016 | 4.27919 | 5335 ft | 270 kts | 252° |
| 2026-05-01 10:11 | 50.40987 | 4.24959 | 6119 ft | 278 kts | 283° |
| 2026-05-01 10:11 | 50.41742 | 4.22144 | 6904 ft | 284 kts | 297° |
| 2026-05-01 10:11 | 50.42780 | 4.19475 | 7626 ft | 289 kts | 301° |
| 2026-05-01 10:12 | 50.43889 | 4.16818 | 8353 ft | 294 kts | 302° |
| 2026-05-01 10:12 | 50.44635 | 4.15038 | 8843 ft | 295 kts | 301° |
| 2026-05-01 10:12 | 50.47272 | 4.08620 | 10549 ft | 305 kts | 300° |
| 2026-05-01 10:13 | 50.48444 | 4.05715 | 10766 ft | 327 kts | 300° |
| 2026-05-01 10:13 | 50.49700 | 4.02584 | 10988 ft | 348 kts | 300° |
| 2026-05-01 10:13 | 50.51012 | 3.99304 | 11426 ft | 359 kts | 300° |
| 2026-05-01 10:14 | 50.53639 | 3.92501 | 12709 ft | 367 kts | 291° |
| 2026-05-01 10:14 | 50.54183 | 3.88618 | 13377 ft | 365 kts | 267° |
| 2026-05-01 10:14 | 50.53772 | 3.84727 | 14092 ft | 361 kts | 246° |
| 2026-05-01 10:14 | 50.52556 | 3.81373 | 14739 ft | 358 kts | 226° |
| 2026-05-01 10:15 | 50.50728 | 3.78771 | 15445 ft | 354 kts | 208° |
| 2026-05-01 10:15 | 50.48527 | 3.77064 | 16158 ft | 354 kts | 201° |
| 2026-05-01 10:15 | 50.46253 | 3.75548 | 16816 ft | 358 kts | 200° |
| 2026-05-01 10:15 | 50.43941 | 3.74041 | 17485 ft | 362 kts | 200° |
| 2026-05-01 10:16 | 50.41609 | 3.72505 | 18151 ft | 365 kts | 201° |
| 2026-05-01 10:16 | 50.39261 | 3.70929 | 18781 ft | 369 kts | 201° |
| 2026-05-01 10:16 | 50.34499 | 3.67698 | 19900 ft | 377 kts | 201° |
| 2026-05-01 10:17 | 50.32082 | 3.66059 | 20499 ft | 380 kts | 201° |
| 2026-05-01 10:17 | 50.27203 | 3.62765 | 21652 ft | 385 kts | 201° |
| 2026-05-01 10:17 | 50.24730 | 3.61097 | 22184 ft | 389 kts | 201° |
| 2026-05-01 10:18 | 50.19726 | 3.57728 | 23270 ft | 395 kts | 201° |
| 2026-05-01 10:18 | 50.17194 | 3.56027 | 23806 ft | 398 kts | 201° |
| 2026-05-01 10:18 | 50.14645 | 3.54319 | 24233 ft | 401 kts | 201° |
| 2026-05-01 10:19 | 50.12075 | 3.52597 | 24679 ft | 403 kts | 201° |
| 2026-05-01 10:19 | 50.09489 | 3.50866 | 25123 ft | 406 kts | 201° |
| 2026-05-01 10:19 | 50.06888 | 3.49127 | 25550 ft | 408 kts | 201° |
| 2026-05-01 10:20 | 50.01633 | 3.45619 | 26353 ft | 414 kts | 201° |
| 2026-05-01 10:20 | 49.98984 | 3.43853 | 26769 ft | 416 kts | 201° |
| 2026-05-01 10:20 | 49.96313 | 3.42074 | 27159 ft | 419 kts | 200° |
| 2026-05-01 10:20 | 49.93626 | 3.40287 | 27553 ft | 421 kts | 200° |
| 2026-05-01 10:21 | 49.90924 | 3.38492 | 27945 ft | 423 kts | 200° |
| 2026-05-01 10:21 | 49.85523 | 3.34909 | 29037 ft | 420 kts | 200° |
| 2026-05-01 10:21 | 49.82840 | 3.33133 | 29590 ft | 418 kts | 200° |
| 2026-05-01 10:22 | 49.77497 | 3.29605 | 30523 ft | 417 kts | 200° |
| 2026-05-01 10:22 | 49.72169 | 3.26094 | 31410 ft | 414 kts | 200° |
| 2026-05-01 10:23 | 49.69527 | 3.24354 | 31837 ft | 413 kts | 200° |
| 2026-05-01 10:23 | 49.64254 | 3.20890 | 32666 ft | 410 kts | 200° |
| 2026-05-01 10:23 | 49.61631 | 3.19170 | 33073 ft | 409 kts | 200° |
| 2026-05-01 10:24 | 49.57253 | 3.16303 | 33220 ft | 414 kts | 200° |
| 2026-05-01 10:24 | 49.51962 | 3.12843 | 33240 ft | 409 kts | 200° |
| 2026-05-01 10:25 | 49.42157 | 3.04246 | 33240 ft | 408 kts | 211° |
| 2026-05-01 10:26 | 49.37456 | 2.99378 | 33235 ft | 408 kts | 210° |
| 2026-05-01 10:27 | 49.27999 | 2.89766 | 33237 ft | 408 kts | 210° |
| 2026-05-01 10:28 | 49.20903 | 2.82619 | 33228 ft | 409 kts | 210° |
| 2026-05-01 10:28 | 49.13804 | 2.75492 | 33233 ft | 409 kts | 210° |
| 2026-05-01 10:29 | 49.06662 | 2.68344 | 33239 ft | 409 kts | 210° |
| 2026-05-01 10:30 | 48.97136 | 2.58849 | 33243 ft | 408 kts | 208° |
| 2026-05-01 10:31 | 48.87640 | 2.49435 | 33238 ft | 406 kts | 208° |
| 2026-05-01 10:32 | 48.80550 | 2.42432 | 33239 ft | 405 kts | 208° |
| 2026-05-01 10:33 | 48.71106 | 2.33138 | 33238 ft | 404 kts | 208° |
| 2026-05-01 10:34 | 48.64023 | 2.26193 | 33243 ft | 405 kts | 208° |
| 2026-05-01 10:34 | 48.59294 | 2.21573 | 33240 ft | 405 kts | 207° |
| 2026-05-01 10:35 | 48.54206 | 2.18227 | 33230 ft | 395 kts | 189° |
| 2026-05-01 10:35 | 48.51527 | 2.17361 | 33236 ft | 394 kts | 188° |
| 2026-05-01 10:35 | 48.46141 | 2.15700 | 33230 ft | 395 kts | 188° |
| 2026-05-01 10:36 | 48.38060 | 2.13128 | 33235 ft | 397 kts | 188° |
| 2026-05-01 10:37 | 48.32656 | 2.11388 | 33229 ft | 397 kts | 188° |
| 2026-05-01 10:37 | 48.27252 | 2.10330 | 33228 ft | 391 kts | 175° |
| 2026-05-01 10:37 | 48.24561 | 2.10696 | 33233 ft | 388 kts | 168° |
| 2026-05-01 10:38 | 48.19220 | 2.11915 | 33251 ft | 388 kts | 168° |
| 2026-05-01 10:38 | 48.13864 | 2.13057 | 33236 ft | 389 kts | 169° |
| 2026-05-01 10:39 | 48.08441 | 2.13545 | 33228 ft | 391 kts | 174° |
| 2026-05-01 10:39 | 48.03013 | 2.13820 | 33246 ft | 390 kts | 174° |
| 2026-05-01 10:40 | 47.97580 | 2.14108 | 33244 ft | 390 kts | 174° |
| 2026-05-01 10:40 | 47.92153 | 2.14415 | 33236 ft | 390 kts | 174° |
| 2026-05-01 10:41 | 47.86733 | 2.14731 | 33239 ft | 390 kts | 174° |
| 2026-05-01 10:42 | 47.78603 | 2.15206 | 33233 ft | 389 kts | 174° |
| 2026-05-01 10:42 | 47.73186 | 2.15523 | 33237 ft | 390 kts | 174° |
| 2026-05-01 10:43 | 47.67760 | 2.15839 | 33240 ft | 391 kts | 174° |
| 2026-05-01 10:43 | 47.62320 | 2.16155 | 33239 ft | 391 kts | 174° |
| 2026-05-01 10:44 | 47.56878 | 2.16470 | 33250 ft | 392 kts | 175° |
| 2026-05-01 10:44 | 47.51458 | 2.16784 | 33247 ft | 393 kts | 175° |
| 2026-05-01 10:45 | 47.45980 | 2.17100 | 33249 ft | 394 kts | 175° |
| 2026-05-01 10:45 | 47.40474 | 2.17417 | 33227 ft | 398 kts | 175° |
| 2026-05-01 10:46 | 47.34939 | 2.17736 | 33242 ft | 398 kts | 176° |
| 2026-05-01 10:46 | 47.29404 | 2.18052 | 33251 ft | 398 kts | 176° |
| 2026-05-01 10:47 | 47.23872 | 2.18369 | 33246 ft | 398 kts | 176° |
| 2026-05-01 10:47 | 47.18332 | 2.18686 | 33245 ft | 399 kts | 176° |
| 2026-05-01 10:48 | 47.12779 | 2.19003 | 33240 ft | 400 kts | 177° |
| 2026-05-01 10:48 | 47.07288 | 2.20135 | 33248 ft | 400 kts | 162° |
| 2026-05-01 10:49 | 47.02098 | 2.23107 | 33248 ft | 401 kts | 158° |
| 2026-05-01 10:49 | 46.96922 | 2.26190 | 33249 ft | 403 kts | 158° |
| 2026-05-01 10:50 | 46.91700 | 2.29265 | 33251 ft | 409 kts | 160° |
| 2026-05-01 10:50 | 46.86348 | 2.32383 | 33255 ft | 417 kts | 160° |
| 2026-05-01 10:51 | 46.80955 | 2.35514 | 33252 ft | 418 kts | 160° |
| 2026-05-01 10:51 | 46.75576 | 2.38629 | 33250 ft | 419 kts | 160° |
| 2026-05-01 10:52 | 46.70176 | 2.41750 | 33254 ft | 416 kts | 160° |
| 2026-05-01 10:52 | 46.64815 | 2.44841 | 33247 ft | 412 kts | 160° |
| 2026-05-01 10:53 | 46.59513 | 2.47893 | 33250 ft | 407 kts | 160° |
| 2026-05-01 10:53 | 46.54266 | 2.50905 | 33249 ft | 404 kts | 160° |
| 2026-05-01 10:54 | 46.48989 | 2.53925 | 33263 ft | 414 kts | 161° |
| 2026-05-01 10:54 | 46.43577 | 2.57017 | 33255 ft | 419 kts | 161° |
| 2026-05-01 10:55 | 46.38134 | 2.60124 | 33250 ft | 421 kts | 161° |
| 2026-05-01 10:55 | 46.32678 | 2.63232 | 33239 ft | 421 kts | 162° |
| 2026-05-01 10:56 | 46.27225 | 2.66330 | 33263 ft | 421 kts | 162° |
| 2026-05-01 10:56 | 46.21774 | 2.69421 | 33253 ft | 421 kts | 162° |
| 2026-05-01 10:57 | 46.16331 | 2.72500 | 33254 ft | 419 kts | 162° |
| 2026-05-01 10:57 | 46.10897 | 2.75568 | 33251 ft | 419 kts | 163° |
| 2026-05-01 10:58 | 46.05472 | 2.78625 | 33253 ft | 420 kts | 163° |
| 2026-05-01 10:58 | 46.00032 | 2.81683 | 33261 ft | 421 kts | 163° |
| 2026-05-01 10:59 | 45.94548 | 2.84629 | 33265 ft | 421 kts | 164° |
| 2026-05-01 10:59 | 45.89032 | 2.87511 | 33259 ft | 422 kts | 164° |
| 2026-05-01 11:00 | 45.83506 | 2.90415 | 33263 ft | 423 kts | 164° |
| 2026-05-01 11:00 | 45.77970 | 2.93328 | 33268 ft | 425 kts | 164° |
| 2026-05-01 11:01 | 45.72290 | 2.95273 | 33250 ft | 416 kts | 181° |
| 2026-05-01 11:01 | 45.66576 | 2.95179 | 33260 ft | 413 kts | 185° |
| 2026-05-01 11:02 | 45.60824 | 2.94953 | 33265 ft | 414 kts | 185° |
| 2026-05-01 11:02 | 45.55069 | 2.94764 | 33271 ft | 414 kts | 185° |
| 2026-05-01 11:03 | 45.49310 | 2.94604 | 33262 ft | 414 kts | 184° |
| 2026-05-01 11:03 | 45.43553 | 2.94453 | 33264 ft | 414 kts | 184° |
| 2026-05-01 11:04 | 45.37799 | 2.94302 | 33272 ft | 414 kts | 184° |
| 2026-05-01 11:04 | 45.32041 | 2.94151 | 33267 ft | 414 kts | 184° |
| 2026-05-01 11:05 | 45.26286 | 2.94000 | 33275 ft | 414 kts | 184° |
| 2026-05-01 11:05 | 45.20516 | 2.93849 | 33275 ft | 415 kts | 184° |
| 2026-05-01 11:06 | 45.14745 | 2.93698 | 33249 ft | 415 kts | 184° |
| 2026-05-01 11:06 | 45.08975 | 2.93548 | 33271 ft | 414 kts | 184° |
| 2026-05-01 11:07 | 45.00367 | 2.93325 | 33274 ft | 414 kts | 184° |
| 2026-05-01 11:07 | 44.94612 | 2.93175 | 33262 ft | 414 kts | 184° |
| 2026-05-01 11:08 | 44.88863 | 2.93027 | 33281 ft | 413 kts | 184° |
| 2026-05-01 11:09 | 44.80253 | 2.92675 | 33277 ft | 412 kts | 185° |
| 2026-05-01 11:09 | 44.74525 | 2.92218 | 33275 ft | 412 kts | 186° |
| 2026-05-01 11:10 | 44.65957 | 2.91546 | 33280 ft | 412 kts | 186° |
| 2026-05-01 11:10 | 44.60237 | 2.91123 | 33282 ft | 412 kts | 186° |
| 2026-05-01 11:11 | 44.55486 | 2.90777 | 33275 ft | 411 kts | 185° |
| 2026-05-01 11:11 | 44.48832 | 2.90294 | 33273 ft | 410 kts | 185° |
| 2026-05-01 11:12 | 44.44102 | 2.89952 | 33271 ft | 410 kts | 185° |
| 2026-05-01 11:12 | 44.38416 | 2.89541 | 33267 ft | 409 kts | 185° |
| 2026-05-01 11:13 | 44.32746 | 2.89133 | 33284 ft | 408 kts | 186° |
| 2026-05-01 11:13 | 44.27095 | 2.88724 | 33281 ft | 407 kts | 185° |
| 2026-05-01 11:14 | 44.21433 | 2.88317 | 33283 ft | 407 kts | 186° |
| 2026-05-01 11:14 | 44.15775 | 2.87909 | 33266 ft | 407 kts | 185° |
| 2026-05-01 11:15 | 44.10120 | 2.87505 | 33282 ft | 407 kts | 186° |
| 2026-05-01 11:15 | 44.04460 | 2.87098 | 33277 ft | 407 kts | 186° |
| 2026-05-01 11:16 | 43.98791 | 2.86697 | 33252 ft | 408 kts | 185° |
| 2026-05-01 11:16 | 43.93124 | 2.86295 | 33271 ft | 408 kts | 187° |
| 2026-05-01 11:17 | 43.87460 | 2.85889 | 33280 ft | 407 kts | 186° |
| 2026-05-01 11:17 | 43.81810 | 2.85486 | 33275 ft | 406 kts | 185° |
| 2026-05-01 11:18 | 43.76169 | 2.85166 | 33274 ft | 406 kts | 183° |
| 2026-05-01 11:18 | 43.70522 | 2.85241 | 33277 ft | 407 kts | 181° |
| 2026-05-01 11:19 | 43.64858 | 2.85380 | 33295 ft | 407 kts | 182° |
| 2026-05-01 11:19 | 43.59200 | 2.85490 | 33278 ft | 407 kts | 183° |
| 2026-05-01 11:20 | 43.53579 | 2.85580 | 33279 ft | 397 kts | 182° |
| 2026-05-01 11:20 | 43.48172 | 2.85665 | 33278 ft | 380 kts | 182° |
| 2026-05-01 11:21 | 43.45563 | 2.85705 | 33268 ft | 368 kts | 182° |
| 2026-05-01 11:21 | 43.43049 | 2.85744 | 33284 ft | 355 kts | 181° |
| 2026-05-01 11:21 | 43.40616 | 2.85780 | 33273 ft | 343 kts | 182° |
| 2026-05-01 11:21 | 43.38261 | 2.85814 | 33273 ft | 336 kts | 183° |
| 2026-05-01 11:22 | 43.33507 | 2.85875 | 33326 ft | 350 kts | 182° |
| 2026-05-01 11:22 | 43.28618 | 2.85941 | 32753 ft | 354 kts | 182° |
| 2026-05-01 11:23 | 43.26113 | 2.85976 | 31801 ft | 369 kts | 182° |
| 2026-05-01 11:23 | 43.23487 | 2.86010 | 30938 ft | 383 kts | 182° |
| 2026-05-01 11:23 | 43.20870 | 2.86051 | 30972 ft | 369 kts | 182° |
| 2026-05-01 11:23 | 43.18319 | 2.86092 | 30933 ft | 367 kts | 183° |
| 2026-05-01 11:24 | 43.13104 | 2.86165 | 30924 ft | 383 kts | 182° |
| 2026-05-01 11:25 | 43.05105 | 2.86282 | 30885 ft | 384 kts | 182° |
| 2026-05-01 11:25 | 42.97113 | 2.86399 | 30874 ft | 381 kts | 182° |
| 2026-05-01 11:26 | 42.89162 | 2.86513 | 30867 ft | 377 kts | 182° |
| 2026-05-01 11:27 | 42.83907 | 2.86584 | 30877 ft | 380 kts | 184° |
| 2026-05-01 11:27 | 42.81338 | 2.86053 | 30846 ft | 371 kts | 203° |
| 2026-05-01 11:27 | 42.79059 | 2.84422 | 30703 ft | 374 kts | 219° |
| 2026-05-01 11:27 | 42.77100 | 2.82064 | 30492 ft | 380 kts | 225° |
| 2026-05-01 11:28 | 42.75218 | 2.79550 | 30321 ft | 378 kts | 226° |
| 2026-05-01 11:28 | 42.71498 | 2.74534 | 30297 ft | 377 kts | 226° |
| 2026-05-01 11:29 | 42.65868 | 2.67036 | 30281 ft | 377 kts | 225° |
| 2026-05-01 11:30 | 42.60247 | 2.59631 | 30279 ft | 375 kts | 225° |
| 2026-05-01 11:30 | 42.56500 | 2.54715 | 30284 ft | 374 kts | 225° |
| 2026-05-01 11:31 | 42.52768 | 2.49825 | 30268 ft | 374 kts | 225° |
| 2026-05-01 11:31 | 42.49020 | 2.44924 | 30278 ft | 375 kts | 225° |
| 2026-05-01 11:32 | 42.45352 | 2.40136 | 30267 ft | 376 kts | 225° |
| 2026-05-01 11:32 | 42.41531 | 2.35156 | 30282 ft | 377 kts | 225° |
| 2026-05-01 11:33 | 42.37750 | 2.30238 | 30277 ft | 377 kts | 225° |
| 2026-05-01 11:33 | 42.33967 | 2.25326 | 30272 ft | 377 kts | 225° |
| 2026-05-01 11:34 | 42.30187 | 2.20426 | 30262 ft | 376 kts | 225° |
| 2026-05-01 11:34 | 42.26420 | 2.15550 | 30257 ft | 375 kts | 224° |
| 2026-05-01 11:35 | 42.22652 | 2.10683 | 30247 ft | 373 kts | 224° |
| 2026-05-01 11:35 | 42.18978 | 2.05947 | 29948 ft | 359 kts | 225° |
| 2026-05-01 11:35 | 42.17194 | 2.03649 | 29645 ft | 354 kts | 225° |
| 2026-05-01 11:36 | 42.15420 | 2.01366 | 29335 ft | 349 kts | 225° |
| 2026-05-01 11:36 | 42.13667 | 1.99111 | 28942 ft | 347 kts | 225° |
| 2026-05-01 11:36 | 42.11930 | 1.96879 | 28595 ft | 344 kts | 225° |
| 2026-05-01 11:36 | 42.10200 | 1.94658 | 28236 ft | 342 kts | 225° |
| 2026-05-01 11:37 | 42.08483 | 1.92455 | 27877 ft | 340 kts | 225° |
| 2026-05-01 11:37 | 42.06781 | 1.90272 | 27531 ft | 338 kts | 224° |
| 2026-05-01 11:37 | 42.05080 | 1.88093 | 27184 ft | 336 kts | 224° |
| 2026-05-01 11:37 | 42.03394 | 1.85934 | 26831 ft | 334 kts | 224° |
| 2026-05-01 11:38 | 42.01715 | 1.83786 | 26498 ft | 332 kts | 224° |
| 2026-05-01 11:38 | 42.00041 | 1.81645 | 26149 ft | 331 kts | 224° |
| 2026-05-01 11:38 | 41.98375 | 1.79518 | 25807 ft | 330 kts | 224° |
| 2026-05-01 11:38 | 41.96711 | 1.77396 | 25462 ft | 329 kts | 224° |
| 2026-05-01 11:39 | 41.94995 | 1.75360 | 24980 ft | 333 kts | 219° |
| 2026-05-01 11:39 | 41.93107 | 1.73521 | 24557 ft | 336 kts | 216° |
| 2026-05-01 11:39 | 41.91176 | 1.71743 | 24180 ft | 337 kts | 216° |
| 2026-05-01 11:39 | 41.89243 | 1.69966 | 23824 ft | 336 kts | 216° |
| 2026-05-01 11:40 | 41.87329 | 1.68186 | 23440 ft | 335 kts | 216° |
| 2026-05-01 11:40 | 41.85426 | 1.66398 | 23067 ft | 333 kts | 217° |
| 2026-05-01 11:40 | 41.83537 | 1.64611 | 22711 ft | 331 kts | 217° |
| 2026-05-01 11:40 | 41.81666 | 1.62835 | 22380 ft | 329 kts | 217° |
| 2026-05-01 11:41 | 41.79810 | 1.61060 | 22034 ft | 326 kts | 219° |
| 2026-05-01 11:41 | 41.78198 | 1.58954 | 21714 ft | 322 kts | 233° |
| 2026-05-01 11:41 | 41.76907 | 1.56488 | 21272 ft | 324 kts | 236° |
| 2026-05-01 11:41 | 41.75665 | 1.53985 | 20925 ft | 322 kts | 237° |
| 2026-05-01 11:42 | 41.74429 | 1.51480 | 20608 ft | 320 kts | 236° |
| 2026-05-01 11:42 | 41.73201 | 1.49001 | 20260 ft | 319 kts | 236° |
| 2026-05-01 11:42 | 41.71969 | 1.46524 | 19855 ft | 321 kts | 236° |
| 2026-05-01 11:42 | 41.70730 | 1.44048 | 19551 ft | 318 kts | 236° |
| 2026-05-01 11:43 | 41.69491 | 1.41584 | 19204 ft | 318 kts | 235° |
| 2026-05-01 11:43 | 41.68265 | 1.39149 | 18931 ft | 315 kts | 235° |
| 2026-05-01 11:43 | 41.67038 | 1.36716 | 18528 ft | 317 kts | 235° |
| 2026-05-01 11:44 | 41.64568 | 1.31831 | 17823 ft | 314 kts | 234° |
| 2026-05-01 11:44 | 41.63371 | 1.29466 | 17602 ft | 308 kts | 235° |
| 2026-05-01 11:44 | 41.62171 | 1.27099 | 17308 ft | 305 kts | 234° |
| 2026-05-01 11:44 | 41.60980 | 1.24753 | 16896 ft | 307 kts | 234° |
| 2026-05-01 11:45 | 41.59781 | 1.22395 | 16611 ft | 305 kts | 235° |
| 2026-05-01 11:45 | 41.58589 | 1.20053 | 16272 ft | 304 kts | 235° |
| 2026-05-01 11:45 | 41.57401 | 1.17717 | 15939 ft | 304 kts | 235° |
| 2026-05-01 11:45 | 41.56213 | 1.15383 | 15592 ft | 304 kts | 235° |
| 2026-05-01 11:46 | 41.55023 | 1.13048 | 15233 ft | 305 kts | 234° |
| 2026-05-01 11:46 | 41.53838 | 1.10724 | 14978 ft | 301 kts | 235° |
| 2026-05-01 11:46 | 41.52660 | 1.08415 | 14686 ft | 300 kts | 235° |
| 2026-05-01 11:46 | 41.51489 | 1.06123 | 14294 ft | 302 kts | 235° |
| 2026-05-01 11:47 | 41.50282 | 1.03761 | 13607 ft | 314 kts | 235° |
| 2026-05-01 11:47 | 41.49046 | 1.01344 | 13169 ft | 315 kts | 235° |
| 2026-05-01 11:47 | 41.47837 | 0.98981 | 12859 ft | 313 kts | 235° |
| 2026-05-01 11:47 | 41.46643 | 0.96649 | 12544 ft | 310 kts | 235° |
| 2026-05-01 11:48 | 41.45446 | 0.94314 | 12199 ft | 309 kts | 234° |
| 2026-05-01 11:48 | 41.44249 | 0.91978 | 11872 ft | 308 kts | 234° |
| 2026-05-01 11:48 | 41.43049 | 0.89638 | 11529 ft | 307 kts | 234° |
| 2026-05-01 11:48 | 41.42085 | 0.87762 | 11272 ft | 305 kts | 234° |
| 2026-05-01 11:49 | 41.40892 | 0.85443 | 10980 ft | 303 kts | 234° |
| 2026-05-01 11:49 | 41.39679 | 0.83220 | 10632 ft | 301 kts | 224° |
| 2026-05-01 11:49 | 41.37964 | 0.81677 | 10272 ft | 298 kts | 201° |
| 2026-05-01 11:49 | 41.36085 | 0.80818 | 10096 ft | 285 kts | 194° |
| 2026-05-01 11:50 | 41.34242 | 0.80130 | 9757 ft | 277 kts | 194° |
| 2026-05-01 11:50 | 41.32402 | 0.79460 | 9223 ft | 278 kts | 194° |
| 2026-05-01 11:50 | 41.30650 | 0.78808 | 8932 ft | 271 kts | 195° |
| 2026-05-01 11:50 | 41.28802 | 0.78101 | 8773 ft | 263 kts | 195° |
| 2026-05-01 11:51 | 41.27095 | 0.77439 | 8635 ft | 256 kts | 195° |
| 2026-05-01 11:51 | 41.25417 | 0.76785 | 8357 ft | 256 kts | 195° |
| 2026-05-01 11:51 | 41.23729 | 0.76123 | 8246 ft | 249 kts | 194° |
| 2026-05-01 11:51 | 41.22099 | 0.75583 | 8021 ft | 246 kts | 187° |
| 2026-05-01 11:52 | 41.20392 | 0.75218 | 7800 ft | 244 kts | 186° |
| 2026-05-01 11:52 | 41.18815 | 0.75225 | 7540 ft | 240 kts | 163° |
| 2026-05-01 11:52 | 41.17507 | 0.75740 | 7353 ft | 238 kts | 161° |
| 2026-05-01 11:53 | 41.16654 | 0.76086 | 7211 ft | 239 kts | 161° |
| 2026-05-01 11:53 | 41.15051 | 0.76728 | 6949 ft | 239 kts | 161° |
| 2026-05-01 11:53 | 41.13488 | 0.77328 | 6637 ft | 236 kts | 162° |
| 2026-05-01 11:53 | 41.11939 | 0.77936 | 6229 ft | 238 kts | 161° |
| 2026-05-01 11:54 | 41.10343 | 0.78546 | 5960 ft | 233 kts | 162° |
| 2026-05-01 11:54 | 41.08894 | 0.79435 | 5549 ft | 230 kts | 135° |
| 2026-05-01 11:54 | 41.08040 | 0.81160 | 5247 ft | 223 kts | 105° |
| 2026-05-01 11:54 | 41.07692 | 0.83136 | 4968 ft | 217 kts | 102° |
| 2026-05-01 11:55 | 41.07368 | 0.85069 | 4549 ft | 214 kts | 101° |
| 2026-05-01 11:55 | 41.07299 | 0.87011 | 4134 ft | 211 kts | 80° |
| 2026-05-01 11:55 | 41.07444 | 0.88891 | 3794 ft | 203 kts | 103° |
| 2026-05-01 11:55 | 41.06979 | 0.90580 | 3573 ft | 189 kts | 101° |
| 2026-05-01 11:56 | 41.07220 | 0.92200 | 3369 ft | 178 kts | 64° |
| 2026-05-01 11:56 | 41.07746 | 0.93595 | 3310 ft | 163 kts | 68° |
| 2026-05-01 11:56 | 41.08215 | 0.94960 | 3299 ft | 163 kts | 68° |
| 2026-05-01 11:56 | 41.08692 | 0.96373 | 3099 ft | 169 kts | 69° |
| 2026-05-01 11:57 | 41.09150 | 0.97792 | 2886 ft | 166 kts | 70° |
| 2026-05-01 11:57 | 41.09451 | 0.98738 | 2722 ft | 164 kts | 69° |
| 2026-05-01 11:57 | 41.10010 | 1.00553 | 2471 ft | 159 kts | 70° |
| 2026-05-01 11:57 | 41.10425 | 1.01903 | 2295 ft | 157 kts | 70° |
| 2026-05-01 11:58 | 41.10692 | 1.02798 | 2106 ft | 158 kts | 71° |
| 2026-05-01 11:58 | 41.11088 | 1.04142 | 2000 ft | 154 kts | 71° |
| 2026-05-01 11:58 | 41.11855 | 1.06849 | 1660 ft | 162 kts | 70° |
| 2026-05-01 11:59 | 41.12273 | 1.08250 | 1444 ft | 165 kts | 70° |
| 2026-05-01 11:59 | 41.12675 | 1.09645 | 1247 ft | 155 kts | 71° |
| 2026-05-01 11:59 | 41.13047 | 1.10921 | 1009 ft | 142 kts | 74° |
| 2026-05-01 12:00 | 41.13748 | 1.13302 | 659 ft | 135 kts | 70° |
| 2026-05-01 12:00 | 41.14076 | 1.14453 | 494 ft | 130 kts | 76° |
| 2026-05-01 12:00 | 41.14734 | 1.16700 | 240 ft | 117 kts | 68° |
| 2026-05-01 12:01 | 41.14946 | 1.17422 | 240 ft | 43 kts | 69° |
| 2026-05-01 12:01 | 41.15008 | 1.17597 | 240 ft | 9 kts | 35° |
| 2026-05-01 12:01 | 41.15070 | 1.17588 | 240 ft | 9 kts | 337° |
| 2026-05-01 12:01 | 41.15128 | 1.17556 | 240 ft | 9 kts | 336° |
| 2026-05-01 12:02 | 41.15143 | 1.17487 | 240 ft | 9 kts | 249° |
| 2026-05-01 12:02 | 41.15117 | 1.17401 | 240 ft | 13 kts | 248° |
| 2026-05-01 12:02 | 41.15075 | 1.17260 | 240 ft | 20 kts | 249° |
| 2026-05-01 12:02 | 41.15015 | 1.17054 | 240 ft | 27 kts | 249° |
| 2026-05-01 12:03 | 41.14946 | 1.16820 | 240 ft | 27 kts | 249° |
| 2026-05-01 12:03 | 41.14881 | 1.16596 | 240 ft | 25 kts | 249° |
| 2026-05-01 12:03 | 41.14820 | 1.16387 | 240 ft | 23 kts | 249° |
| 2026-05-01 12:03 | 41.14762 | 1.16190 | 240 ft | 23 kts | 249° |
| 2026-05-01 12:04 | 41.14707 | 1.16000 | 240 ft | 22 kts | 249° |
| 2026-05-01 12:04 | 41.14652 | 1.15813 | 240 ft | 21 kts | 249° |
| 2026-05-01 12:04 | 41.14609 | 1.15666 | 240 ft | 14 kts | 249° |
| 2026-05-01 12:04 | 41.14606 | 1.15590 | 240 ft | 8 kts | 330° |
| 2026-05-01 12:05 | 41.14645 | 1.15570 | 240 ft | 5 kts | 339° |
| 2026-05-01 12:05 | 41.14663 | 1.15561 | 240 ft | 0 kts | 339° |